sensor_id;sensor_type;location;lat;lon;timestamp;pressure;altitude;pressure_sealevel;temperature;humidity
64354;BME280;50681;53.334;-6.536;2023-03-23T00:02:23;98145.75;;;8.82;100.00
64354;BME280;50681;53.334;-6.536;2023-03-23T00:04:48;98150.25;;;8.90;100.00
64354;BME280;50681;53.334;-6.536;2023-03-23T00:07:14;98166.84;;;9.05;100.00
64354;BME280;50681;53.334;-6.536;2023-03-23T00:09:46;98173.13;;;9.09;100.00
64354;BME280;50681;53.334;-6.536;2023-03-23T00:12:12;98155.03;;;9.09;100.00
64354;BME280;50681;53.334;-6.536;2023-03-23T00:14:40;98172.53;;;9.16;100.00
64354;BME280;50681;53.334;-6.536;2023-03-23T00:17:08;98144.16;;;9.18;100.00
64354;BME280;50681;53.334;-6.536;2023-03-23T00:19:36;98152.22;;;9.31;100.00
64354;BME280;50681;53.334;-6.536;2023-03-23T00:22:14;98148.94;;;9.37;100.00
64354;BME280;50681;53.334;-6.536;2023-03-23T00:24:40;98168.22;;;9.52;100.00
64354;BME280;50681;53.334;-6.536;2023-03-23T00:27:06;98162.59;;;9.57;100.00
64354;BME280;50681;53.334;-6.536;2023-03-23T00:29:31;98145.69;;;9.44;100.00
64354;BME280;50681;53.334;-6.536;2023-03-23T00:31:57;98145.97;;;9.55;100.00
64354;BME280;50681;53.334;-6.536;2023-03-23T00:34:23;98134.13;;;9.44;100.00
64354;BME280;50681;53.334;-6.536;2023-03-23T00:36:54;98125.19;;;9.27;100.00
64354;BME280;50681;53.334;-6.536;2023-03-23T00:39:22;98142.56;;;9.30;100.00
64354;BME280;50681;53.334;-6.536;2023-03-23T00:41:50;98119.34;;;9.25;100.00
64354;BME280;50681;53.334;-6.536;2023-03-23T00:44:15;98134.25;;;9.35;100.00
64354;BME280;50681;53.334;-6.536;2023-03-23T00:46:45;98120.16;;;9.25;100.00
64354;BME280;50681;53.334;-6.536;2023-03-23T00:49:12;98145.72;;;9.32;100.00
64354;BME280;50681;53.334;-6.536;2023-03-23T00:51:39;98121.06;;;9.17;100.00
64354;BME280;50681;53.334;-6.536;2023-03-23T00:54:05;98145.69;;;9.44;100.00
64354;BME280;50681;53.334;-6.536;2023-03-23T00:56:30;98142.81;;;9.24;100.00
64354;BME280;50681;53.334;-6.536;2023-03-23T00:58:56;98136.16;;;9.34;100.00
64354;BME280;50681;53.334;-6.536;2023-03-23T01:01:21;98136.50;;;9.33;100.00
64354;BME280;50681;53.334;-6.536;2023-03-23T01:03:46;98148.50;;;9.35;100.00
64354;BME280;50681;53.334;-6.536;2023-03-23T01:06:12;98144.78;;;9.40;100.00
64354;BME280;50681;53.334;-6.536;2023-03-23T01:08:41;98145.47;;;9.37;100.00
64354;BME280;50681;53.334;-6.536;2023-03-23T01:11:15;98153.09;;;9.47;100.00
64354;BME280;50681;53.334;-6.536;2023-03-23T01:13:42;98137.41;;;9.37;100.00
64354;BME280;50681;53.334;-6.536;2023-03-23T01:16:08;98136.84;;;9.31;100.00
64354;BME280;50681;53.334;-6.536;2023-03-23T01:18:34;98149.38;;;9.39;100.00
64354;BME280;50681;53.334;-6.536;2023-03-23T01:21:05;98134.75;;;9.53;100.00
64354;BME280;50681;53.334;-6.536;2023-03-23T01:23:32;98139.59;;;9.60;100.00
64354;BME280;50681;53.334;-6.536;2023-03-23T01:26:02;98131.31;;;9.52;100.00
64354;BME280;50681;53.334;-6.536;2023-03-23T01:28:28;98146.47;;;9.45;100.00
64354;BME280;50681;53.334;-6.536;2023-03-23T01:31:01;98151.81;;;9.57;100.00
64354;BME280;50681;53.334;-6.536;2023-03-23T01:33:28;98168.81;;;9.74;100.00
64354;BME280;50681;53.334;-6.536;2023-03-23T01:35:53;98172.81;;;9.64;100.00
64354;BME280;50681;53.334;-6.536;2023-03-23T01:38:18;98155.78;;;9.47;100.00
64354;BME280;50681;53.334;-6.536;2023-03-23T01:40:44;98155.34;;;9.33;100.00
64354;BME280;50681;53.334;-6.536;2023-03-23T01:43:15;98136.50;;;9.33;100.00
64354;BME280;50681;53.334;-6.536;2023-03-23T01:45:41;98143.91;;;9.36;100.00
64354;BME280;50681;53.334;-6.536;2023-03-23T01:53:18;98123.97;;;9.24;100.00
64354;BME280;50681;53.334;-6.536;2023-03-23T01:55:47;98132.91;;;9.41;100.00
64354;BME280;50681;53.334;-6.536;2023-03-23T01:58:17;98136.75;;;9.27;100.00
64354;BME280;50681;53.334;-6.536;2023-03-23T02:00:45;98135.19;;;9.26;100.00
64354;BME280;50681;53.334;-6.536;2023-03-23T02:03:11;98127.53;;;9.29;100.00
64354;BME280;50681;53.334;-6.536;2023-03-23T02:05:42;98141.66;;;9.38;100.00
64354;BME280;50681;53.334;-6.536;2023-03-23T02:08:10;98143.69;;;9.29;100.00
64354;BME280;50681;53.334;-6.536;2023-03-23T02:10:37;98143.69;;;9.29;100.00
64354;BME280;50681;53.334;-6.536;2023-03-23T02:13:05;98119.09;;;9.30;100.00
64354;BME280;50681;53.334;-6.536;2023-03-23T02:15:44;98126.72;;;9.40;100.00
64354;BME280;50681;53.334;-6.536;2023-03-23T02:21:01;98122.19;;;9.57;100.00
64354;BME280;50681;53.334;-6.536;2023-03-23T02:26:38;98114.72;;;9.38;100.00
64354;BME280;50681;53.334;-6.536;2023-03-23T02:29:26;98118.34;;;9.30;100.00
64354;BME280;50681;53.334;-6.536;2023-03-23T02:34:50;98099.78;;;9.40;100.00
64354;BME280;50681;53.334;-6.536;2023-03-23T02:40:27;98083.06;;;9.47;100.00
64354;BME280;50681;53.334;-6.536;2023-03-23T02:42:55;98083.69;;;9.56;100.00
64354;BME280;50681;53.334;-6.536;2023-03-23T02:45:23;98074.75;;;9.68;100.00
64354;BME280;50681;53.334;-6.536;2023-03-23T02:47:53;98062.88;;;9.41;100.00
64354;BME280;50681;53.334;-6.536;2023-03-23T02:50:22;98093.59;;;9.52;100.00
64354;BME280;50681;53.334;-6.536;2023-03-23T02:52:50;98073.53;;;9.37;100.00
64354;BME280;50681;53.334;-6.536;2023-03-23T02:55:19;98084.19;;;9.46;100.00
64354;BME280;50681;53.334;-6.536;2023-03-23T02:57:49;98078.31;;;9.56;100.00
64354;BME280;50681;53.334;-6.536;2023-03-23T03:00:16;98058.63;;;9.40;100.00
64354;BME280;50681;53.334;-6.536;2023-03-23T03:03:00;98091.97;;;9.64;100.00
64354;BME280;50681;53.334;-6.536;2023-03-23T03:08:26;98097.81;;;9.66;100.00
64354;BME280;50681;53.334;-6.536;2023-03-23T03:16:30;98066.94;;;9.63;100.00
64354;BME280;50681;53.334;-6.536;2023-03-23T03:21:42;98064.63;;;9.78;100.00
64354;BME280;50681;53.334;-6.536;2023-03-23T03:24:21;98045.16;;;9.84;100.00
64354;BME280;50681;53.334;-6.536;2023-03-23T03:26:52;98053.06;;;9.77;100.00
64354;BME280;50681;53.334;-6.536;2023-03-23T03:29:26;98064.47;;;9.58;100.00
64354;BME280;50681;53.334;-6.536;2023-03-23T03:31:57;98056.25;;;9.67;100.00
64354;BME280;50681;53.334;-6.536;2023-03-23T03:34:25;98044.22;;;9.48;100.00
64354;BME280;50681;53.334;-6.536;2023-03-23T03:36:52;98047.66;;;9.33;100.00
64354;BME280;50681;53.334;-6.536;2023-03-23T03:39:19;98043.97;;;9.53;100.00
64354;BME280;50681;53.334;-6.536;2023-03-23T03:41:47;98016.41;;;9.44;100.00
64354;BME280;50681;53.334;-6.536;2023-03-23T03:44:12;98026.75;;;9.42;100.00
64354;BME280;50681;53.334;-6.536;2023-03-23T03:46:38;98034.81;;;9.42;100.00
64354;BME280;50681;53.334;-6.536;2023-03-23T03:49:06;98020.41;;;9.50;100.00
64354;BME280;50681;53.334;-6.536;2023-03-23T03:51:32;98030.50;;;9.53;100.00
64354;BME280;50681;53.334;-6.536;2023-03-23T03:53:59;98009.78;;;9.41;100.00
64354;BME280;50681;53.334;-6.536;2023-03-23T03:56:25;98017.13;;;9.29;100.00
64354;BME280;50681;53.334;-6.536;2023-03-23T03:58:51;98000.59;;;9.14;100.00
64354;BME280;50681;53.334;-6.536;2023-03-23T04:01:19;98013.84;;;9.07;100.00
64354;BME280;50681;53.334;-6.536;2023-03-23T04:03:48;98006.56;;;8.95;100.00
64354;BME280;50681;53.334;-6.536;2023-03-23T04:06:14;98000.44;;;8.94;100.00
64354;BME280;50681;53.334;-6.536;2023-03-23T04:08:40;97997.19;;;8.89;100.00
64354;BME280;50681;53.334;-6.536;2023-03-23T04:11:07;97997.75;;;8.82;100.00
64354;BME280;50681;53.334;-6.536;2023-03-23T04:13:33;98015.25;;;8.88;100.00
64354;BME280;50681;53.334;-6.536;2023-03-23T04:15:59;98026.00;;;8.88;100.00
64354;BME280;50681;53.334;-6.536;2023-03-23T04:18:25;98014.16;;;8.77;100.00
64354;BME280;50681;53.334;-6.536;2023-03-23T04:20:51;98015.25;;;8.76;100.00
64354;BME280;50681;53.334;-6.536;2023-03-23T04:23:18;98020.50;;;8.85;100.00
64354;BME280;50681;53.334;-6.536;2023-03-23T04:25:49;98026.78;;;8.89;100.00
64354;BME280;50681;53.334;-6.536;2023-03-23T04:28:16;98008.44;;;8.66;100.00
64354;BME280;50681;53.334;-6.536;2023-03-23T04:30:44;98030.31;;;8.64;100.00
64354;BME280;50681;53.334;-6.536;2023-03-23T04:33:11;98040.81;;;8.82;100.00
64354;BME280;50681;53.334;-6.536;2023-03-23T04:35:42;98040.25;;;8.76;100.00
64354;BME280;50681;53.334;-6.536;2023-03-23T04:38:12;98025.34;;;8.79;100.00
64354;BME280;50681;53.334;-6.536;2023-03-23T04:40:40;98010.78;;;8.80;100.00
64354;BME280;50681;53.334;-6.536;2023-03-23T04:43:06;98036.56;;;8.81;100.00
64354;BME280;50681;53.334;-6.536;2023-03-23T04:45:33;98042.84;;;8.85;100.00
64354;BME280;50681;53.334;-6.536;2023-03-23T04:47:59;98037.94;;;8.62;100.00
64354;BME280;50681;53.334;-6.536;2023-03-23T04:50:29;98009.47;;;8.49;100.00
64354;BME280;50681;53.334;-6.536;2023-03-23T04:52:56;98037.81;;;8.59;100.00
64354;BME280;50681;53.334;-6.536;2023-03-23T04:55:24;98046.97;;;8.70;100.00
64354;BME280;50681;53.334;-6.536;2023-03-23T04:57:50;98028.03;;;8.42;100.00
64354;BME280;50681;53.334;-6.536;2023-03-23T05:00:16;98017.28;;;8.42;100.00
64354;BME280;50681;53.334;-6.536;2023-03-23T05:02:42;98022.09;;;8.36;100.00
64354;BME280;50681;53.334;-6.536;2023-03-23T05:05:09;98048.78;;;8.66;100.00
64354;BME280;50681;53.334;-6.536;2023-03-23T05:07:39;98029.63;;;8.43;100.00
64354;BME280;50681;53.334;-6.536;2023-03-23T05:10:07;98048.09;;;8.44;100.00
64354;BME280;50681;53.334;-6.536;2023-03-23T05:12:33;98033.19;;;8.34;100.00
64354;BME280;50681;53.334;-6.536;2023-03-23T05:14:58;98044.28;;;8.33;100.00
64354;BME280;50681;53.334;-6.536;2023-03-23T05:17:24;98045.31;;;8.41;100.00
64354;BME280;50681;53.334;-6.536;2023-03-23T05:19:55;98043.81;;;8.31;100.00
64354;BME280;50681;53.334;-6.536;2023-03-23T05:22:22;98038.34;;;8.27;100.00
64354;BME280;50681;53.334;-6.536;2023-03-23T05:24:47;98043.38;;;8.29;100.00
64354;BME280;50681;53.334;-6.536;2023-03-23T05:27:13;98042.38;;;8.21;100.00
64354;BME280;50681;53.334;-6.536;2023-03-23T05:29:40;98056.72;;;8.25;100.00
64354;BME280;50681;53.334;-6.536;2023-03-23T05:32:07;98045.72;;;8.18;100.00
64354;BME280;50681;53.334;-6.536;2023-03-23T05:34:34;98047.31;;;8.19;100.00
64354;BME280;50681;53.334;-6.536;2023-03-23T05:36:59;98060.31;;;8.42;100.00
64354;BME280;50681;53.334;-6.536;2023-03-23T05:39:26;98060.53;;;8.24;100.00
64354;BME280;50681;53.334;-6.536;2023-03-23T05:41:59;98034.97;;;8.18;100.00
64354;BME280;50681;53.334;-6.536;2023-03-23T05:44:24;98066.38;;;8.38;100.00
64354;BME280;50681;53.334;-6.536;2023-03-23T05:46:50;98060.53;;;8.36;100.00
64354;BME280;50681;53.334;-6.536;2023-03-23T05:49:16;98062.09;;;8.37;100.00
64354;BME280;50681;53.334;-6.536;2023-03-23T05:51:43;98058.53;;;8.33;100.00
64354;BME280;50681;53.334;-6.536;2023-03-23T05:54:09;98048.31;;;8.27;100.00
64354;BME280;50681;53.334;-6.536;2023-03-23T05:56:36;98058.28;;;8.38;100.00
64354;BME280;50681;53.334;-6.536;2023-03-23T05:59:01;98054.72;;;8.34;100.00
64354;BME280;50681;53.334;-6.536;2023-03-23T06:01:28;98041.94;;;8.31;100.00
64354;BME280;50681;53.334;-6.536;2023-03-23T06:03:55;98048.44;;;8.30;100.00
64354;BME280;50681;53.334;-6.536;2023-03-23T06:06:26;98060.84;;;8.47;100.00
64354;BME280;50681;53.334;-6.536;2023-03-23T06:08:52;98028.59;;;8.22;100.00
64354;BME280;50681;53.334;-6.536;2023-03-23T06:11:18;98046.41;;;8.39;100.00
64354;BME280;50681;53.334;-6.536;2023-03-23T06:13:44;98029.38;;;8.35;100.00
64354;BME280;50681;53.334;-6.536;2023-03-23T06:16:10;98036.78;;;8.26;100.00
64354;BME280;50681;53.334;-6.536;2023-03-23T06:18:35;98048.22;;;8.35;100.00
64354;BME280;50681;53.334;-6.536;2023-03-23T06:21:05;98043.69;;;8.02;100.00
64354;BME280;50681;53.334;-6.536;2023-03-23T06:23:31;98038.34;;;8.27;100.00
64354;BME280;50681;53.334;-6.536;2023-03-23T06:25:59;98006.31;;;8.09;100.00
64354;BME280;50681;53.334;-6.536;2023-03-23T06:28:26;98029.38;;;8.23;100.00
64354;BME280;50681;53.334;-6.536;2023-03-23T06:30:52;98012.81;;;8.21;100.00
64354;BME280;50681;53.334;-6.536;2023-03-23T06:33:18;98013.25;;;7.98;100.00
64354;BME280;50681;53.334;-6.536;2023-03-23T06:35:43;98027.47;;;8.23;100.00
64354;BME280;50681;53.334;-6.536;2023-03-23T06:38:09;98017.28;;;8.29;100.00
64354;BME280;50681;53.334;-6.536;2023-03-23T06:40:35;98009.44;;;8.12;100.00
64354;BME280;50681;53.334;-6.536;2023-03-23T06:43:04;98032.31;;;8.30;100.00
64354;BME280;50681;53.334;-6.536;2023-03-23T06:45:30;98032.75;;;8.32;100.00
64354;BME280;50681;53.334;-6.536;2023-03-23T06:47:56;98019.19;;;8.29;100.00
64354;BME280;50681;53.334;-6.536;2023-03-23T06:50:22;98015.59;;;8.12;100.00
64354;BME280;50681;53.334;-6.536;2023-03-23T06:52:49;98037.94;;;8.50;100.00
64354;BME280;50681;53.334;-6.536;2023-03-23T06:55:15;98038.13;;;8.45;100.00
64354;BME280;50681;53.334;-6.536;2023-03-23T06:57:42;98031.63;;;8.46;100.00
64354;BME280;50681;53.334;-6.536;2023-03-23T07:00:09;98037.03;;;8.58;100.00
64354;BME280;50681;53.334;-6.536;2023-03-23T07:02:38;98010.66;;;8.39;100.00
64354;BME280;50681;53.334;-6.536;2023-03-23T07:05:04;98023.38;;;8.51;100.00
64354;BME280;50681;53.334;-6.536;2023-03-23T07:07:29;98017.84;;;8.47;100.00
64354;BME280;50681;53.334;-6.536;2023-03-23T07:09:55;98034.31;;;8.83;100.00
64354;BME280;50681;53.334;-6.536;2023-03-23T07:12:22;98031.91;;;8.94;100.00
64354;BME280;50681;53.334;-6.536;2023-03-23T07:14:48;98025.78;;;8.93;100.00
64354;BME280;50681;53.334;-6.536;2023-03-23T07:17:13;98027.81;;;8.84;100.00
64354;BME280;50681;53.334;-6.536;2023-03-23T07:19:39;98044.59;;;9.06;100.00
64354;BME280;50681;53.334;-6.536;2023-03-23T07:22:06;98048.13;;;9.22;100.00
64354;BME280;50681;53.334;-6.536;2023-03-23T07:24:32;98035.50;;;9.39;100.00
64354;BME280;50681;53.334;-6.536;2023-03-23T07:26:57;98027.75;;;9.09;100.00
64354;BME280;50681;53.334;-6.536;2023-03-23T07:29:23;98012.44;;;9.25;100.00
64354;BME280;50681;53.334;-6.536;2023-03-23T07:31:48;98035.69;;;9.46;100.00
64354;BME280;50681;53.334;-6.536;2023-03-23T07:34:14;98029.88;;;9.44;100.00
64354;BME280;50681;53.334;-6.536;2023-03-23T07:36:40;98017.91;;;9.29;100.00
64354;BME280;50681;53.334;-6.536;2023-03-23T07:39:05;98025.13;;;9.53;100.00
64354;BME280;50681;53.334;-6.536;2023-03-23T07:41:32;98030.16;;;9.55;100.00
64354;BME280;50681;53.334;-6.536;2023-03-23T07:43:57;98043.50;;;9.80;100.00
64354;BME280;50681;53.334;-6.536;2023-03-23T07:46:23;98038.78;;;9.77;100.00
64354;BME280;50681;53.334;-6.536;2023-03-23T07:48:49;98030.63;;;9.73;100.00
64354;BME280;50681;53.334;-6.536;2023-03-23T07:51:15;98043.34;;;9.89;100.00
64354;BME280;50681;53.334;-6.536;2023-03-23T07:53:44;98041.84;;;9.91;100.00
64354;BME280;50681;53.334;-6.536;2023-03-23T07:56:11;98043.16;;;9.97;100.00
64354;BME280;50681;53.334;-6.536;2023-03-23T07:58:37;98025.59;;;9.88;100.00
64354;BME280;50681;53.334;-6.536;2023-03-23T08:01:03;98035.44;;;9.96;100.00
64354;BME280;50681;53.334;-6.536;2023-03-23T08:03:29;98040.84;;;9.96;100.00
64354;BME280;50681;53.334;-6.536;2023-03-23T08:05:57;98023.78;;;9.92;100.00
64354;BME280;50681;53.334;-6.536;2023-03-23T08:08:24;98053.03;;;10.22;100.00
64354;BME280;50681;53.334;-6.536;2023-03-23T08:10:50;98052.41;;;10.28;100.00
64354;BME280;50681;53.334;-6.536;2023-03-23T08:13:16;98050.66;;;10.36;100.00
64354;BME280;50681;53.334;-6.536;2023-03-23T08:15:41;98041.53;;;10.41;100.00
64354;BME280;50681;53.334;-6.536;2023-03-23T08:18:07;98053.38;;;10.52;100.00
64354;BME280;50681;53.334;-6.536;2023-03-23T08:20:33;98049.34;;;10.62;100.00
64354;BME280;50681;53.334;-6.536;2023-03-23T08:22:58;98050.84;;;10.59;100.00
64354;BME280;50681;53.334;-6.536;2023-03-23T08:25:25;98025.97;;;10.50;100.00
64354;BME280;50681;53.334;-6.536;2023-03-23T08:27:52;98030.75;;;10.57;100.00
64354;BME280;50681;53.334;-6.536;2023-03-23T08:30:19;98045.13;;;10.81;100.00
64354;BME280;50681;53.334;-6.536;2023-03-23T08:32:46;98044.97;;;10.73;100.00
64354;BME280;50681;53.334;-6.536;2023-03-23T08:35:13;98029.03;;;10.68;100.00
64354;BME280;50681;53.334;-6.536;2023-03-23T08:37:39;98024.59;;;10.76;100.00
64354;BME280;50681;53.334;-6.536;2023-03-23T08:40:07;98039.88;;;10.88;100.00
64354;BME280;50681;53.334;-6.536;2023-03-23T08:42:37;98028.94;;;10.81;100.00
64354;BME280;50681;53.334;-6.536;2023-03-23T08:45:05;98027.09;;;10.85;100.00
64354;BME280;50681;53.334;-6.536;2023-03-23T08:47:32;98020.50;;;10.82;100.00
64354;BME280;50681;53.334;-6.536;2023-03-23T08:49:58;98055.41;;;11.11;100.00
64354;BME280;50681;53.334;-6.536;2023-03-23T08:52:41;98053.38;;;11.43;100.00
64354;BME280;50681;53.334;-6.536;2023-03-23T08:55:07;98056.97;;;11.31;100.00
64354;BME280;50681;53.334;-6.536;2023-03-23T08:57:34;98039.78;;;11.20;100.00
64354;BME280;50681;53.334;-6.536;2023-03-23T09:00:00;98060.25;;;11.21;100.00
64354;BME280;50681;53.334;-6.536;2023-03-23T09:02:33;98026.13;;;11.13;100.00
64354;BME280;50681;53.334;-6.536;2023-03-23T09:04:59;98030.53;;;11.21;100.00
64354;BME280;50681;53.334;-6.536;2023-03-23T09:07:26;98057.91;;;11.39;100.00
64354;BME280;50681;53.334;-6.536;2023-03-23T09:09:52;98055.34;;;11.27;100.00
64354;BME280;50681;53.334;-6.536;2023-03-23T09:12:30;98045.75;;;11.29;100.00
64354;BME280;50681;53.334;-6.536;2023-03-23T09:14:56;98039.78;;;11.40;100.00
64354;BME280;50681;53.334;-6.536;2023-03-23T09:17:22;98034.78;;;11.42;100.00
64354;BME280;50681;53.334;-6.536;2023-03-23T09:19:47;98036.50;;;11.50;100.00
64354;BME280;50681;53.334;-6.536;2023-03-23T09:22:13;98029.25;;;11.54;100.00
64354;BME280;50681;53.334;-6.536;2023-03-23T09:24:40;98028.81;;;11.52;100.00
64354;BME280;50681;53.334;-6.536;2023-03-23T09:27:06;98057.47;;;11.76;100.00
64354;BME280;50681;53.334;-6.536;2023-03-23T09:29:31;98043.69;;;11.85;100.00
64354;BME280;50681;53.334;-6.536;2023-03-23T09:31:56;98060.94;;;11.77;100.00
64354;BME280;50681;53.334;-6.536;2023-03-23T09:34:23;98040.41;;;11.96;100.00
64354;BME280;50681;53.334;-6.536;2023-03-23T09:36:49;98044.25;;;11.95;100.00
64354;BME280;50681;53.334;-6.536;2023-03-23T09:39:15;98046.81;;;12.07;100.00
64354;BME280;50681;53.334;-6.536;2023-03-23T09:44:51;98062.13;;;12.46;100.00
64354;BME280;50681;53.334;-6.536;2023-03-23T09:50:19;98053.59;;;12.44;100.00
64354;BME280;50681;53.334;-6.536;2023-03-23T09:55:17;98059.88;;;12.52;100.00
64354;BME280;50681;53.334;-6.536;2023-03-23T10:00:43;98027.09;;;12.57;100.00
64354;BME280;50681;53.334;-6.536;2023-03-23T10:03:16;98055.69;;;12.81;100.00
64354;BME280;50681;53.334;-6.536;2023-03-23T10:05:48;98030.41;;;12.70;100.00
64354;BME280;50681;53.334;-6.536;2023-03-23T10:08:19;98053.00;;;13.12;100.00
64354;BME280;50681;53.334;-6.536;2023-03-23T10:10:50;98062.97;;;13.38;100.00
64354;BME280;50681;53.334;-6.536;2023-03-23T10:16:12;98054.50;;;13.40;100.00
64354;BME280;50681;53.334;-6.536;2023-03-23T10:22:08;98034.34;;;13.06;100.00
64354;BME280;50681;53.334;-6.536;2023-03-23T10:25:03;98065.19;;;13.29;100.00
64354;BME280;50681;53.334;-6.536;2023-03-23T10:28:03;98078.78;;;13.32;100.00
64354;BME280;50681;53.334;-6.536;2023-03-23T10:30:39;98046.84;;;13.15;100.00
64354;BME280;50681;53.334;-6.536;2023-03-23T10:39:23;98036.78;;;13.84;100.00
64354;BME280;50681;53.334;-6.536;2023-03-23T11:07:52;98039.59;;;14.99;100.00
64354;BME280;50681;53.334;-6.536;2023-03-23T11:10:24;98051.03;;;15.41;100.00
64354;BME280;50681;53.334;-6.536;2023-03-23T11:12:52;98069.78;;;15.71;100.00
64354;BME280;50681;53.334;-6.536;2023-03-23T11:15:32;98056.59;;;15.73;100.00
64354;BME280;50681;53.334;-6.536;2023-03-23T11:18:00;98044.97;;;15.91;100.00
64354;BME280;50681;53.334;-6.536;2023-03-23T11:20:27;98046.84;;;15.76;100.00
64354;BME280;50681;53.334;-6.536;2023-03-23T11:22:54;98058.06;;;15.46;100.00
64354;BME280;50681;53.334;-6.536;2023-03-23T11:25:21;98060.66;;;15.20;100.00
64354;BME280;50681;53.334;-6.536;2023-03-23T11:27:47;98058.72;;;15.24;100.00
64354;BME280;50681;53.334;-6.536;2023-03-23T11:30:27;98056.13;;;14.72;100.00
64354;BME280;50681;53.334;-6.536;2023-03-23T11:32:59;98048.72;;;14.69;100.00
64354;BME280;50681;53.334;-6.536;2023-03-23T11:35:27;98061.44;;;14.58;100.00
64354;BME280;50681;53.334;-6.536;2023-03-23T11:37:56;98033.75;;;14.37;100.00
64354;BME280;50681;53.334;-6.536;2023-03-23T11:40:25;98042.34;;;14.47;100.00
64354;BME280;50681;53.334;-6.536;2023-03-23T11:43:21;98060.81;;;14.79;100.00
64354;BME280;50681;53.334;-6.536;2023-03-23T11:46:11;98041.84;;;14.30;100.00
64354;BME280;50681;53.334;-6.536;2023-03-23T11:48:51;98051.41;;;14.65;100.00
64354;BME280;50681;53.334;-6.536;2023-03-23T11:52:03;98049.59;;;14.80;100.00
64354;BME280;50681;53.334;-6.536;2023-03-23T11:54:34;98046.31;;;14.57;100.00
64354;BME280;50681;53.334;-6.536;2023-03-23T11:56:59;98059.03;;;14.45;100.00
64354;BME280;50681;53.334;-6.536;2023-03-23T11:59:33;98051.69;;;14.49;100.00
64354;BME280;50681;53.334;-6.536;2023-03-23T12:04:48;98047.25;;;14.26;100.00
64354;BME280;50681;53.334;-6.536;2023-03-23T12:12:36;98038.75;;;14.32;100.00
64354;BME280;50681;53.334;-6.536;2023-03-23T12:23:44;98025.19;;;14.88;100.00
64354;BME280;50681;53.334;-6.536;2023-03-23T12:27:14;98018.66;;;15.03;100.00
64354;BME280;50681;53.334;-6.536;2023-03-23T12:34:57;97999.59;;;14.99;100.00
64354;BME280;50681;53.334;-6.536;2023-03-23T12:48:18;97978.03;;;16.55;100.00
64354;BME280;50681;53.334;-6.536;2023-03-23T12:54:07;97989.69;;;16.67;100.00
64354;BME280;50681;53.334;-6.536;2023-03-23T13:01:44;97970.59;;;16.78;100.00
64354;BME280;50681;53.334;-6.536;2023-03-23T13:04:21;97975.66;;;16.72;100.00
64354;BME280;50681;53.334;-6.536;2023-03-23T13:06:48;97975.69;;;16.65;100.00
64354;BME280;50681;53.334;-6.536;2023-03-23T13:09:29;97951.56;;;16.67;100.00
64354;BME280;50681;53.334;-6.536;2023-03-23T13:11:59;97946.94;;;16.42;100.00
64354;BME280;50681;53.334;-6.536;2023-03-23T13:20:13;97964.03;;;16.64;100.00
64354;BME280;50681;53.334;-6.536;2023-03-23T13:22:48;97953.00;;;17.08;100.00
64354;BME280;50681;53.334;-6.536;2023-03-23T13:25:29;97924.97;;;16.93;100.00
64354;BME280;50681;53.334;-6.536;2023-03-23T13:28:02;97945.56;;;17.12;100.00
64354;BME280;50681;53.334;-6.536;2023-03-23T13:30:28;97938.09;;;17.27;100.00
64354;BME280;50681;53.334;-6.536;2023-03-23T13:33:10;97919.91;;;17.02;100.00
64354;BME280;50681;53.334;-6.536;2023-03-23T13:35:38;97928.91;;;16.84;100.00
64354;BME280;50681;53.334;-6.536;2023-03-23T13:38:20;97926.69;;;16.50;100.00
64354;BME280;50681;53.334;-6.536;2023-03-23T13:40:46;97925.50;;;16.58;100.00
64354;BME280;50681;53.334;-6.536;2023-03-23T13:43:12;97895.66;;;16.26;100.00
64354;BME280;50681;53.334;-6.536;2023-03-23T13:45:47;97910.44;;;16.25;100.00
64354;BME280;50681;53.334;-6.536;2023-03-23T13:53:30;97898.00;;;15.80;100.00
64354;BME280;50681;53.334;-6.536;2023-03-23T13:59:06;97903.09;;;15.89;100.00
64354;BME280;50681;53.334;-6.536;2023-03-23T14:01:37;97883.25;;;15.78;100.00
64354;BME280;50681;53.334;-6.536;2023-03-23T14:04:06;97899.59;;;15.96;100.00
64354;BME280;50681;53.334;-6.536;2023-03-23T14:06:39;97903.44;;;16.06;100.00
64354;BME280;50681;53.334;-6.536;2023-03-23T14:09:10;97878.97;;;15.91;100.00
64354;BME280;50681;53.334;-6.536;2023-03-23T14:11:52;97893.34;;;16.13;100.00
64354;BME280;50681;53.334;-6.536;2023-03-23T14:14:26;97870.75;;;16.27;100.00
64354;BME280;50681;53.334;-6.536;2023-03-23T14:19:48;97854.44;;;16.16;100.00
64354;BME280;50681;53.334;-6.536;2023-03-23T14:25:19;97874.66;;;16.12;100.00
64354;BME280;50681;53.334;-6.536;2023-03-23T14:27:51;97867.72;;;15.89;100.00
64354;BME280;50681;53.334;-6.536;2023-03-23T14:30:25;97872.38;;;15.78;100.00
64354;BME280;50681;53.334;-6.536;2023-03-23T14:32:52;97877.41;;;15.50;100.00
64354;BME280;50681;53.334;-6.536;2023-03-23T14:35:30;97854.84;;;15.10;100.00
64354;BME280;50681;53.334;-6.536;2023-03-23T14:37:58;97891.72;;;15.07;100.00
64354;BME280;50681;53.334;-6.536;2023-03-23T14:40:34;97846.72;;;15.24;100.00
64354;BME280;50681;53.334;-6.536;2023-03-23T14:42:59;97884.00;;;15.31;100.00
64354;BME280;50681;53.334;-6.536;2023-03-23T14:45:26;97872.31;;;14.98;100.00
64354;BME280;50681;53.334;-6.536;2023-03-23T14:48:14;97876.25;;;15.33;100.00
64354;BME280;50681;53.334;-6.536;2023-03-23T14:50:42;97870.00;;;15.18;100.00
64354;BME280;50681;53.334;-6.536;2023-03-23T14:53:29;97866.16;;;15.37;100.00
64354;BME280;50681;53.334;-6.536;2023-03-23T14:55:55;97840.13;;;15.29;100.00
64354;BME280;50681;53.334;-6.536;2023-03-23T14:58:23;97855.66;;;15.28;100.00
64354;BME280;50681;53.334;-6.536;2023-03-23T15:00:56;97861.50;;;15.41;100.00
64354;BME280;50681;53.334;-6.536;2023-03-23T15:03:24;97837.41;;;15.33;100.00
64354;BME280;50681;53.334;-6.536;2023-03-23T15:06:03;97854.88;;;15.39;100.00
64354;BME280;50681;53.334;-6.536;2023-03-23T15:08:32;97860.28;;;15.17;100.00
64354;BME280;50681;53.334;-6.536;2023-03-23T15:11:12;97871.88;;;14.81;100.00
64354;BME280;50681;53.334;-6.536;2023-03-23T15:13:45;97858.88;;;14.46;100.00
64354;BME280;50681;53.334;-6.536;2023-03-23T15:16:17;97861.97;;;14.40;100.00